Airfield :
LOGIN :

Register | Disclaimer

   EN    FR    IT 

 










Legend :    VFR   Marginal VFR   IFR   Intensive IFR   Very Intensive IFR
Visi :
Ceiling :
>= 8 km
>= 3000ft
5 to 8 km
1000 to 3000 ft
1500m to 5 km
500 to 1000 ft
800 to 1500m
200 to 500 ft
< 800m
< 200 ft
Symbols :   Thunderstorms  Fog  Heavy snow  Heavy precipitations  Wind > 20 kt
SIGMETs :     Misc.  Thunderstorms  Icing  Turbulence  Mountain Waves  Volcanic Ashes






- Airport Elevation : 122 ft
- IATA code : TXL


EDDT - Berlin Tegel Int.

CURRENT METAR :
  • 070350Z VRB01KT CAVOK 11/08 Q1005 NOSIG

EXPIRED METARs :
  • 070320Z VRB01KT CAVOK 10/08 Q1005 NOSIG
  • 070250Z 20003KT 170V230 CAVOK 10/08 Q1005
  • 070220Z 18005KT CAVOK 11/08 Q1005
  • 070150Z 18004KT CAVOK 10/08 Q1005
  • 070120Z 19004KT CAVOK 11/08 Q1005
  • 070050Z 19006KT CAVOK 12/08 Q1005

TAF TAF EDDT
Valid from the 07 at 00:00 until the 08 at 00:00 UTC


062300Z 0700/0724 18005KT CAVOK
TEMPO 0701/0705 VRB03KT
BECMG 0707/0710 20010KT
BECMG 0716/0719 27005KT



MET'MAP, your aeronautical weather chart ! - Copyright ORBIFLY December 2007 - Disclaimer

ORBIFLY MET'MAP TEAM :

Programming & Development : Alexandra Zaïnal
Concept & original design : Baudouin d'Aumeries
Assistance for programming : Marc-Olivier Méhu
Technical & hardware support : Manuel Goepfert

Contact : metmap@orbifly.com




SOURCES & CREDITS :

   NOAA